sensor_id;sensor_type;location;lat;lon;timestamp;P1;durP1;ratioP1;P2;durP2;ratioP2
8040;SDS011;4063;48.140;10.250;2023-02-01T00:01:29;11.50;;;7.20;;
8040;SDS011;4063;48.140;10.250;2023-02-01T00:03:55;9.13;;;7.03;;
8040;SDS011;4063;48.140;10.250;2023-02-01T00:06:21;10.00;;;7.43;;
8040;SDS011;4063;48.140;10.250;2023-02-01T00:08:47;7.53;;;6.53;;
8040;SDS011;4063;48.140;10.250;2023-02-01T00:11:13;11.93;;;7.47;;
8040;SDS011;4063;48.140;10.250;2023-02-01T00:13:40;10.07;;;7.17;;
8040;SDS011;4063;48.140;10.250;2023-02-01T00:16:08;13.27;;;8.97;;
8040;SDS011;4063;48.140;10.250;2023-02-01T00:18:35;11.47;;;7.40;;
8040;SDS011;4063;48.140;10.250;2023-02-01T00:21:01;9.57;;;7.37;;
8040;SDS011;4063;48.140;10.250;2023-02-01T00:23:27;9.30;;;7.30;;
8040;SDS011;4063;48.140;10.250;2023-02-01T00:25:53;9.90;;;7.90;;
8040;SDS011;4063;48.140;10.250;2023-02-01T00:28:19;10.47;;;8.07;;
8040;SDS011;4063;48.140;10.250;2023-02-01T00:30:45;11.53;;;8.47;;
8040;SDS011;4063;48.140;10.250;2023-02-01T00:33:11;9.37;;;7.07;;
8040;SDS011;4063;48.140;10.250;2023-02-01T00:35:37;11.87;;;8.00;;
8040;SDS011;4063;48.140;10.250;2023-02-01T00:38:03;11.37;;;8.00;;
8040;SDS011;4063;48.140;10.250;2023-02-01T00:40:29;10.43;;;8.23;;
8040;SDS011;4063;48.140;10.250;2023-02-01T00:42:55;16.53;;;8.90;;
8040;SDS011;4063;48.140;10.250;2023-02-01T00:45:22;11.40;;;8.50;;
8040;SDS011;4063;48.140;10.250;2023-02-01T00:47:48;10.40;;;8.57;;
8040;SDS011;4063;48.140;10.250;2023-02-01T00:50:14;11.47;;;8.67;;
8040;SDS011;4063;48.140;10.250;2023-02-01T00:52:40;10.70;;;8.93;;
8040;SDS011;4063;48.140;10.250;2023-02-01T00:55:06;11.57;;;9.10;;
8040;SDS011;4063;48.140;10.250;2023-02-01T00:57:33;10.60;;;8.23;;
8040;SDS011;4063;48.140;10.250;2023-02-01T00:59:58;12.60;;;9.40;;
8040;SDS011;4063;48.140;10.250;2023-02-01T01:02:25;12.50;;;8.17;;
8040;SDS011;4063;48.140;10.250;2023-02-01T01:04:52;11.87;;;8.67;;
8040;SDS011;4063;48.140;10.250;2023-02-01T01:07:18;12.53;;;9.40;;
8040;SDS011;4063;48.140;10.250;2023-02-01T01:09:44;12.17;;;9.07;;
8040;SDS011;4063;48.140;10.250;2023-02-01T01:12:10;12.90;;;8.80;;
8040;SDS011;4063;48.140;10.250;2023-02-01T01:14:36;11.93;;;8.67;;
8040;SDS011;4063;48.140;10.250;2023-02-01T01:17:02;13.23;;;9.70;;
8040;SDS011;4063;48.140;10.250;2023-02-01T01:19:28;14.10;;;10.07;;
8040;SDS011;4063;48.140;10.250;2023-02-01T01:21:54;11.77;;;9.13;;
8040;SDS011;4063;48.140;10.250;2023-02-01T01:24:20;12.20;;;9.43;;
8040;SDS011;4063;48.140;10.250;2023-02-01T01:26:46;10.17;;;8.57;;
8040;SDS011;4063;48.140;10.250;2023-02-01T01:29:12;14.90;;;9.37;;
8040;SDS011;4063;48.140;10.250;2023-02-01T01:31:38;11.23;;;9.30;;
8040;SDS011;4063;48.140;10.250;2023-02-01T01:34:04;13.67;;;10.00;;
8040;SDS011;4063;48.140;10.250;2023-02-01T01:36:30;13.60;;;9.63;;
8040;SDS011;4063;48.140;10.250;2023-02-01T01:38:56;13.20;;;9.70;;
8040;SDS011;4063;48.140;10.250;2023-02-01T01:41:23;12.73;;;8.17;;
8040;SDS011;4063;48.140;10.250;2023-02-01T01:46:25;10.60;;;8.87;;
8040;SDS011;4063;48.140;10.250;2023-02-01T01:49:02;13.17;;;9.97;;
8040;SDS011;4063;48.140;10.250;2023-02-01T01:51:28;12.17;;;8.63;;
8040;SDS011;4063;48.140;10.250;2023-02-01T01:54:18;11.77;;;8.83;;
8040;SDS011;4063;48.140;10.250;2023-02-01T01:56:42;10.13;;;8.97;;
8040;SDS011;4063;48.140;10.250;2023-02-01T01:59:08;11.40;;;8.20;;
8040;SDS011;4063;48.140;10.250;2023-02-01T02:01:35;10.17;;;8.70;;
8040;SDS011;4063;48.140;10.250;2023-02-01T02:04:01;10.67;;;7.87;;
8040;SDS011;4063;48.140;10.250;2023-02-01T02:06:30;9.73;;;7.90;;
8040;SDS011;4063;48.140;10.250;2023-02-01T02:08:59;14.00;;;8.67;;
8040;SDS011;4063;48.140;10.250;2023-02-01T02:11:25;11.60;;;8.90;;
8040;SDS011;4063;48.140;10.250;2023-02-01T02:13:52;11.47;;;9.00;;
8040;SDS011;4063;48.140;10.250;2023-02-01T02:18:54;11.60;;;8.17;;
8040;SDS011;4063;48.140;10.250;2023-02-01T02:24:09;12.77;;;8.83;;
8040;SDS011;4063;48.140;10.250;2023-02-01T02:48:02;13.00;;;8.70;;
8040;SDS011;4063;48.140;10.250;2023-02-01T02:50:34;13.30;;;8.80;;
8040;SDS011;4063;48.140;10.250;2023-02-01T02:53:23;10.27;;;8.47;;
8040;SDS011;4063;48.140;10.250;2023-02-01T02:56:09;10.50;;;8.77;;
8040;SDS011;4063;48.140;10.250;2023-02-01T02:58:55;14.50;;;8.80;;
8040;SDS011;4063;48.140;10.250;2023-02-01T03:01:41;10.00;;;8.37;;
8040;SDS011;4063;48.140;10.250;2023-02-01T03:04:26;11.13;;;9.07;;
8040;SDS011;4063;48.140;10.250;2023-02-01T03:06:52;13.90;;;9.47;;
8040;SDS011;4063;48.140;10.250;2023-02-01T03:09:36;12.50;;;8.53;;
8040;SDS011;4063;48.140;10.250;2023-02-01T03:12:04;10.87;;;8.60;;
8040;SDS011;4063;48.140;10.250;2023-02-01T03:14:50;10.50;;;8.10;;
8040;SDS011;4063;48.140;10.250;2023-02-01T03:17:19;11.13;;;7.60;;
8040;SDS011;4063;48.140;10.250;2023-02-01T03:19:47;15.73;;;8.30;;
8040;SDS011;4063;48.140;10.250;2023-02-01T03:22:15;9.27;;;7.87;;
8040;SDS011;4063;48.140;10.250;2023-02-01T03:24:53;10.25;;;8.98;;
8040;SDS011;4063;48.140;10.250;2023-02-01T03:27:21;10.03;;;8.47;;
8040;SDS011;4063;48.140;10.250;2023-02-01T03:29:51;11.57;;;7.83;;
8040;SDS011;4063;48.140;10.250;2023-02-01T03:32:18;17.17;;;7.27;;
8040;SDS011;4063;48.140;10.250;2023-02-01T03:34:44;11.03;;;7.23;;
8040;SDS011;4063;48.140;10.250;2023-02-01T03:37:10;11.27;;;7.87;;
8040;SDS011;4063;48.140;10.250;2023-02-01T03:39:41;8.67;;;6.23;;
8040;SDS011;4063;48.140;10.250;2023-02-01T03:42:18;10.73;;;7.73;;
8040;SDS011;4063;48.140;10.250;2023-02-01T03:47:25;12.03;;;8.07;;
8040;SDS011;4063;48.140;10.250;2023-02-01T03:50:03;9.20;;;7.40;;
8040;SDS011;4063;48.140;10.250;2023-02-01T03:52:38;8.27;;;7.30;;
8040;SDS011;4063;48.140;10.250;2023-02-01T03:55:06;13.70;;;7.47;;
8040;SDS011;4063;48.140;10.250;2023-02-01T03:57:34;10.13;;;7.57;;
8040;SDS011;4063;48.140;10.250;2023-02-01T04:00:08;8.53;;;7.37;;
8040;SDS011;4063;48.140;10.250;2023-02-01T04:02:35;9.97;;;7.60;;
8040;SDS011;4063;48.140;10.250;2023-02-01T04:05:01;8.13;;;7.33;;
8040;SDS011;4063;48.140;10.250;2023-02-01T04:07:27;9.00;;;6.97;;
8040;SDS011;4063;48.140;10.250;2023-02-01T04:09:53;8.10;;;6.90;;
8040;SDS011;4063;48.140;10.250;2023-02-01T04:12:19;11.63;;;7.43;;
8040;SDS011;4063;48.140;10.250;2023-02-01T04:14:45;8.67;;;6.70;;
8040;SDS011;4063;48.140;10.250;2023-02-01T04:17:10;10.83;;;6.90;;
8040;SDS011;4063;48.140;10.250;2023-02-01T04:19:36;8.50;;;6.63;;
8040;SDS011;4063;48.140;10.250;2023-02-01T04:22:02;9.60;;;7.33;;
8040;SDS011;4063;48.140;10.250;2023-02-01T04:24:28;8.87;;;7.03;;
8040;SDS011;4063;48.140;10.250;2023-02-01T04:26:54;9.00;;;6.67;;
8040;SDS011;4063;48.140;10.250;2023-02-01T04:29:20;9.57;;;7.40;;
8040;SDS011;4063;48.140;10.250;2023-02-01T04:31:46;12.40;;;7.27;;
8040;SDS011;4063;48.140;10.250;2023-02-01T04:34:12;9.00;;;7.00;;
8040;SDS011;4063;48.140;10.250;2023-02-01T04:36:38;9.50;;;7.00;;
8040;SDS011;4063;48.140;10.250;2023-02-01T04:39:04;10.70;;;6.80;;
8040;SDS011;4063;48.140;10.250;2023-02-01T04:41:30;8.53;;;6.57;;
8040;SDS011;4063;48.140;10.250;2023-02-01T04:43:56;9.47;;;7.50;;
8040;SDS011;4063;48.140;10.250;2023-02-01T04:46:22;9.80;;;6.57;;
8040;SDS011;4063;48.140;10.250;2023-02-01T04:48:48;10.30;;;6.60;;
8040;SDS011;4063;48.140;10.250;2023-02-01T04:51:14;9.57;;;7.23;;
8040;SDS011;4063;48.140;10.250;2023-02-01T04:53:40;8.60;;;6.90;;
8040;SDS011;4063;48.140;10.250;2023-02-01T04:56:06;8.77;;;6.47;;
8040;SDS011;4063;48.140;10.250;2023-02-01T04:58:32;7.90;;;7.10;;
8040;SDS011;4063;48.140;10.250;2023-02-01T05:00:58;8.23;;;7.07;;
8040;SDS011;4063;48.140;10.250;2023-02-01T05:03:24;9.63;;;7.13;;
8040;SDS011;4063;48.140;10.250;2023-02-01T05:05:50;9.40;;;7.43;;
8040;SDS011;4063;48.140;10.250;2023-02-01T05:08:18;8.70;;;6.93;;
8040;SDS011;4063;48.140;10.250;2023-02-01T05:10:44;8.80;;;6.50;;
8040;SDS011;4063;48.140;10.250;2023-02-01T05:13:10;8.10;;;6.53;;
8040;SDS011;4063;48.140;10.250;2023-02-01T05:15:55;9.80;;;7.03;;
8040;SDS011;4063;48.140;10.250;2023-02-01T05:18:21;8.67;;;6.63;;
8040;SDS011;4063;48.140;10.250;2023-02-01T05:20:47;9.33;;;6.17;;
8040;SDS011;4063;48.140;10.250;2023-02-01T05:23:13;7.37;;;6.57;;
8040;SDS011;4063;48.140;10.250;2023-02-01T05:25:38;10.07;;;6.87;;
8040;SDS011;4063;48.140;10.250;2023-02-01T05:28:04;9.83;;;6.40;;
8040;SDS011;4063;48.140;10.250;2023-02-01T05:30:30;10.60;;;6.80;;
8040;SDS011;4063;48.140;10.250;2023-02-01T05:32:57;8.87;;;6.63;;
8040;SDS011;4063;48.140;10.250;2023-02-01T05:35:23;8.50;;;7.03;;
8040;SDS011;4063;48.140;10.250;2023-02-01T05:37:49;9.30;;;6.57;;
8040;SDS011;4063;48.140;10.250;2023-02-01T05:40:15;8.70;;;7.43;;
8040;SDS011;4063;48.140;10.250;2023-02-01T05:42:41;8.80;;;7.10;;
8040;SDS011;4063;48.140;10.250;2023-02-01T05:45:07;9.33;;;7.53;;
8040;SDS011;4063;48.140;10.250;2023-02-01T05:47:33;10.37;;;7.60;;
8040;SDS011;4063;48.140;10.250;2023-02-01T05:49:59;8.60;;;7.17;;
8040;SDS011;4063;48.140;10.250;2023-02-01T05:52:25;11.90;;;8.57;;
8040;SDS011;4063;48.140;10.250;2023-02-01T05:54:51;8.80;;;7.87;;
8040;SDS011;4063;48.140;10.250;2023-02-01T05:57:17;9.33;;;7.80;;
8040;SDS011;4063;48.140;10.250;2023-02-01T05:59:43;10.13;;;7.93;;
8040;SDS011;4063;48.140;10.250;2023-02-01T06:02:11;10.10;;;7.83;;
8040;SDS011;4063;48.140;10.250;2023-02-01T06:04:37;10.03;;;8.50;;
8040;SDS011;4063;48.140;10.250;2023-02-01T06:07:04;10.73;;;8.53;;
8040;SDS011;4063;48.140;10.250;2023-02-01T06:09:30;12.17;;;8.87;;
8040;SDS011;4063;48.140;10.250;2023-02-01T06:11:56;13.87;;;9.30;;
8040;SDS011;4063;48.140;10.250;2023-02-01T06:14:22;12.77;;;9.10;;
8040;SDS011;4063;48.140;10.250;2023-02-01T06:16:49;9.83;;;8.37;;
8040;SDS011;4063;48.140;10.250;2023-02-01T06:19:15;13.33;;;10.13;;
8040;SDS011;4063;48.140;10.250;2023-02-01T06:21:41;11.20;;;9.17;;
8040;SDS011;4063;48.140;10.250;2023-02-01T06:24:07;11.03;;;8.23;;
8040;SDS011;4063;48.140;10.250;2023-02-01T06:26:33;12.07;;;8.97;;
8040;SDS011;4063;48.140;10.250;2023-02-01T06:28:59;11.23;;;8.20;;
8040;SDS011;4063;48.140;10.250;2023-02-01T06:31:25;12.90;;;8.00;;
8040;SDS011;4063;48.140;10.250;2023-02-01T06:33:51;13.17;;;8.80;;
8040;SDS011;4063;48.140;10.250;2023-02-01T06:36:18;10.00;;;8.63;;
8040;SDS011;4063;48.140;10.250;2023-02-01T06:38:46;13.20;;;8.50;;
8040;SDS011;4063;48.140;10.250;2023-02-01T06:41:12;10.97;;;9.03;;
8040;SDS011;4063;48.140;10.250;2023-02-01T06:43:38;9.47;;;7.73;;
8040;SDS011;4063;48.140;10.250;2023-02-01T06:46:06;9.33;;;7.87;;
8040;SDS011;4063;48.140;10.250;2023-02-01T06:48:32;10.70;;;8.73;;
8040;SDS011;4063;48.140;10.250;2023-02-01T06:50:58;8.63;;;7.70;;
8040;SDS011;4063;48.140;10.250;2023-02-01T06:53:24;10.87;;;8.20;;
8040;SDS011;4063;48.140;10.250;2023-02-01T06:58:19;8.57;;;7.63;;
8040;SDS011;4063;48.140;10.250;2023-02-01T07:00:45;11.17;;;8.60;;
8040;SDS011;4063;48.140;10.250;2023-02-01T07:03:11;10.63;;;8.03;;
8040;SDS011;4063;48.140;10.250;2023-02-01T07:05:37;9.73;;;8.53;;
8040;SDS011;4063;48.140;10.250;2023-02-01T07:08:03;10.50;;;8.17;;
8040;SDS011;4063;48.140;10.250;2023-02-01T07:10:29;11.50;;;8.90;;
8040;SDS011;4063;48.140;10.250;2023-02-01T07:12:58;12.10;;;8.73;;
8040;SDS011;4063;48.140;10.250;2023-02-01T07:15:24;10.80;;;8.13;;
8040;SDS011;4063;48.140;10.250;2023-02-01T07:17:50;10.90;;;7.90;;
8040;SDS011;4063;48.140;10.250;2023-02-01T07:20:16;11.17;;;7.50;;
8040;SDS011;4063;48.140;10.250;2023-02-01T07:22:42;10.53;;;9.30;;
8040;SDS011;4063;48.140;10.250;2023-02-01T07:25:08;10.13;;;7.93;;
8040;SDS011;4063;48.140;10.250;2023-02-01T07:27:34;11.47;;;8.73;;
8040;SDS011;4063;48.140;10.250;2023-02-01T07:30:00;9.07;;;7.67;;
8040;SDS011;4063;48.140;10.250;2023-02-01T07:32:27;11.37;;;8.57;;
8040;SDS011;4063;48.140;10.250;2023-02-01T07:34:53;10.70;;;8.70;;
8040;SDS011;4063;48.140;10.250;2023-02-01T07:37:19;11.27;;;7.87;;
8040;SDS011;4063;48.140;10.250;2023-02-01T07:39:45;8.70;;;7.40;;
8040;SDS011;4063;48.140;10.250;2023-02-01T07:42:11;9.30;;;8.17;;
8040;SDS011;4063;48.140;10.250;2023-02-01T07:44:37;10.00;;;8.13;;
8040;SDS011;4063;48.140;10.250;2023-02-01T07:47:03;8.50;;;7.60;;
8040;SDS011;4063;48.140;10.250;2023-02-01T07:49:29;9.33;;;7.90;;
8040;SDS011;4063;48.140;10.250;2023-02-01T07:51:55;9.13;;;7.37;;
8040;SDS011;4063;48.140;10.250;2023-02-01T07:54:21;9.43;;;8.40;;
8040;SDS011;4063;48.140;10.250;2023-02-01T07:56:48;11.37;;;7.90;;
8040;SDS011;4063;48.140;10.250;2023-02-01T07:59:14;7.53;;;6.73;;
8040;SDS011;4063;48.140;10.250;2023-02-01T08:01:40;8.03;;;7.17;;
8040;SDS011;4063;48.140;10.250;2023-02-01T08:04:07;7.87;;;7.03;;
8040;SDS011;4063;48.140;10.250;2023-02-01T08:06:35;9.17;;;6.93;;
8040;SDS011;4063;48.140;10.250;2023-02-01T08:09:01;8.73;;;6.63;;
8040;SDS011;4063;48.140;10.250;2023-02-01T08:11:28;8.10;;;6.97;;
8040;SDS011;4063;48.140;10.250;2023-02-01T08:13:54;9.17;;;6.60;;
8040;SDS011;4063;48.140;10.250;2023-02-01T08:16:20;9.07;;;7.37;;
8040;SDS011;4063;48.140;10.250;2023-02-01T08:18:46;9.40;;;7.77;;
8040;SDS011;4063;48.140;10.250;2023-02-01T08:21:14;7.30;;;6.43;;
8040;SDS011;4063;48.140;10.250;2023-02-01T08:23:40;8.37;;;7.57;;
8040;SDS011;4063;48.140;10.250;2023-02-01T08:26:14;7.37;;;6.03;;
8040;SDS011;4063;48.140;10.250;2023-02-01T08:28:41;8.60;;;6.27;;
8040;SDS011;4063;48.140;10.250;2023-02-01T08:31:08;7.57;;;6.47;;
8040;SDS011;4063;48.140;10.250;2023-02-01T08:33:35;7.60;;;6.50;;
8040;SDS011;4063;48.140;10.250;2023-02-01T08:36:03;9.27;;;7.47;;
8040;SDS011;4063;48.140;10.250;2023-02-01T08:38:32;10.50;;;7.37;;
8040;SDS011;4063;48.140;10.250;2023-02-01T08:41:04;9.53;;;7.37;;
8040;SDS011;4063;48.140;10.250;2023-02-01T08:43:42;22.47;;;15.37;;
8040;SDS011;4063;48.140;10.250;2023-02-01T08:46:09;7.43;;;6.63;;
8040;SDS011;4063;48.140;10.250;2023-02-01T08:48:38;9.13;;;8.03;;
8040;SDS011;4063;48.140;10.250;2023-02-01T08:51:14;8.50;;;7.07;;
8040;SDS011;4063;48.140;10.250;2023-02-01T08:53:40;9.67;;;6.50;;
8040;SDS011;4063;48.140;10.250;2023-02-01T08:56:16;8.30;;;6.80;;
8040;SDS011;4063;48.140;10.250;2023-02-01T08:58:49;6.10;;;5.37;;
8040;SDS011;4063;48.140;10.250;2023-02-01T09:01:16;9.13;;;6.13;;
8040;SDS011;4063;48.140;10.250;2023-02-01T09:03:44;7.70;;;6.57;;
8040;SDS011;4063;48.140;10.250;2023-02-01T09:06:11;7.53;;;5.77;;
8040;SDS011;4063;48.140;10.250;2023-02-01T09:08:41;8.97;;;5.70;;
8040;SDS011;4063;48.140;10.250;2023-02-01T09:11:16;6.40;;;5.50;;
8040;SDS011;4063;48.140;10.250;2023-02-01T09:13:44;5.87;;;5.27;;
8040;SDS011;4063;48.140;10.250;2023-02-01T09:16:13;7.17;;;5.67;;
8040;SDS011;4063;48.140;10.250;2023-02-01T09:18:39;7.43;;;5.07;;
8040;SDS011;4063;48.140;10.250;2023-02-01T09:21:10;6.20;;;5.60;;
8040;SDS011;4063;48.140;10.250;2023-02-01T09:23:46;6.33;;;5.30;;
8040;SDS011;4063;48.140;10.250;2023-02-01T09:26:13;7.47;;;5.33;;
8040;SDS011;4063;48.140;10.250;2023-02-01T09:28:39;6.43;;;5.57;;
8040;SDS011;4063;48.140;10.250;2023-02-01T09:31:08;5.60;;;4.80;;
8040;SDS011;4063;48.140;10.250;2023-02-01T09:33:37;6.53;;;5.87;;
8040;SDS011;4063;48.140;10.250;2023-02-01T09:36:04;6.80;;;5.23;;
8040;SDS011;4063;48.140;10.250;2023-02-01T09:38:33;6.80;;;6.10;;
8040;SDS011;4063;48.140;10.250;2023-02-01T09:40:59;6.20;;;5.00;;
8040;SDS011;4063;48.140;10.250;2023-02-01T09:46:15;7.33;;;5.73;;
8040;SDS011;4063;48.140;10.250;2023-02-01T09:48:44;7.17;;;5.43;;
8040;SDS011;4063;48.140;10.250;2023-02-01T09:51:19;6.83;;;5.77;;
8040;SDS011;4063;48.140;10.250;2023-02-01T09:53:50;6.10;;;5.50;;
8040;SDS011;4063;48.140;10.250;2023-02-01T09:56:23;6.97;;;5.90;;
8040;SDS011;4063;48.140;10.250;2023-02-01T09:58:54;7.00;;;5.57;;
8040;SDS011;4063;48.140;10.250;2023-02-01T10:01:23;5.33;;;4.83;;
8040;SDS011;4063;48.140;10.250;2023-02-01T10:03:50;6.03;;;5.20;;
8040;SDS011;4063;48.140;10.250;2023-02-01T10:09:02;5.83;;;5.07;;
8040;SDS011;4063;48.140;10.250;2023-02-01T10:22:28;7.33;;;5.93;;
8040;SDS011;4063;48.140;10.250;2023-02-01T10:25:20;8.73;;;6.10;;
8040;SDS011;4063;48.140;10.250;2023-02-01T10:27:47;7.13;;;5.63;;
8040;SDS011;4063;48.140;10.250;2023-02-01T10:35:36;12.07;;;5.50;;
8040;SDS011;4063;48.140;10.250;2023-02-01T10:38:19;10.20;;;6.13;;
8040;SDS011;4063;48.140;10.250;2023-02-01T10:40:51;7.43;;;5.50;;
8040;SDS011;4063;48.140;10.250;2023-02-01T10:43:20;7.10;;;6.30;;
8040;SDS011;4063;48.140;10.250;2023-02-01T10:45:47;6.70;;;5.67;;
8040;SDS011;4063;48.140;10.250;2023-02-01T10:48:16;8.27;;;6.60;;
8040;SDS011;4063;48.140;10.250;2023-02-01T10:51:05;7.70;;;5.90;;
8040;SDS011;4063;48.140;10.250;2023-02-01T10:53:46;7.97;;;5.63;;
8040;SDS011;4063;48.140;10.250;2023-02-01T10:56:18;6.90;;;5.60;;
8040;SDS011;4063;48.140;10.250;2023-02-01T10:58:49;7.53;;;5.47;;
8040;SDS011;4063;48.140;10.250;2023-02-01T11:01:27;6.57;;;5.73;;
8040;SDS011;4063;48.140;10.250;2023-02-01T11:03:55;8.40;;;5.90;;
8040;SDS011;4063;48.140;10.250;2023-02-01T11:08:51;8.00;;;5.57;;
8040;SDS011;4063;48.140;10.250;2023-02-01T11:11:18;6.97;;;5.20;;
8040;SDS011;4063;48.140;10.250;2023-02-01T11:13:44;6.50;;;4.97;;
8040;SDS011;4063;48.140;10.250;2023-02-01T11:16:13;5.90;;;4.77;;
8040;SDS011;4063;48.140;10.250;2023-02-01T11:18:40;6.50;;;4.97;;
8040;SDS011;4063;48.140;10.250;2023-02-01T11:21:07;6.20;;;4.57;;
8040;SDS011;4063;48.140;10.250;2023-02-01T11:23:33;6.70;;;5.07;;
8040;SDS011;4063;48.140;10.250;2023-02-01T11:26:19;5.33;;;4.63;;
8040;SDS011;4063;48.140;10.250;2023-02-01T11:29:19;5.53;;;4.57;;
8040;SDS011;4063;48.140;10.250;2023-02-01T11:31:38;6.30;;;5.10;;
8040;SDS011;4063;48.140;10.250;2023-02-01T11:36:32;9.03;;;5.53;;
8040;SDS011;4063;48.140;10.250;2023-02-01T11:39:07;7.10;;;5.10;;
8040;SDS011;4063;48.140;10.250;2023-02-01T11:41:34;5.67;;;5.07;;
8040;SDS011;4063;48.140;10.250;2023-02-01T11:44:15;7.33;;;4.47;;
8040;SDS011;4063;48.140;10.250;2023-02-01T11:46:44;10.93;;;5.20;;
8040;SDS011;4063;48.140;10.250;2023-02-01T11:49:13;7.67;;;4.77;;
8040;SDS011;4063;48.140;10.250;2023-02-01T12:01:43;6.07;;;4.63;;
8040;SDS011;4063;48.140;10.250;2023-02-01T12:07:09;6.50;;;4.60;;
8040;SDS011;4063;48.140;10.250;2023-02-01T12:17:51;8.23;;;5.50;;
8040;SDS011;4063;48.140;10.250;2023-02-01T12:25:39;7.00;;;4.43;;
8040;SDS011;4063;48.140;10.250;2023-02-01T12:28:20;14.77;;;8.83;;
8040;SDS011;4063;48.140;10.250;2023-02-01T12:33:57;7.43;;;4.50;;
8040;SDS011;4063;48.140;10.250;2023-02-01T12:36:12;6.07;;;4.30;;
8040;SDS011;4063;48.140;10.250;2023-02-01T12:38:53;6.67;;;4.07;;
8040;SDS011;4063;48.140;10.250;2023-02-01T12:43:52;4.90;;;4.20;;
8040;SDS011;4063;48.140;10.250;2023-02-01T12:46:21;7.30;;;4.63;;
8040;SDS011;4063;48.140;10.250;2023-02-01T12:51:22;4.60;;;3.57;;
8040;SDS011;4063;48.140;10.250;2023-02-01T12:53:56;7.93;;;4.10;;
8040;SDS011;4063;48.140;10.250;2023-02-01T12:58:54;6.07;;;4.93;;
8040;SDS011;4063;48.140;10.250;2023-02-01T13:01:40;4.83;;;3.53;;
8040;SDS011;4063;48.140;10.250;2023-02-01T13:04:42;4.20;;;3.50;;
8040;SDS011;4063;48.140;10.250;2023-02-01T13:07:20;5.27;;;3.90;;
8040;SDS011;4063;48.140;10.250;2023-02-01T13:09:50;6.23;;;4.17;;
8040;SDS011;4063;48.140;10.250;2023-02-01T13:12:21;4.57;;;3.77;;
8040;SDS011;4063;48.140;10.250;2023-02-01T13:14:52;6.17;;;3.60;;
8040;SDS011;4063;48.140;10.250;2023-02-01T13:17:25;4.17;;;3.33;;
8040;SDS011;4063;48.140;10.250;2023-02-01T13:19:53;4.13;;;3.50;;
8040;SDS011;4063;48.140;10.250;2023-02-01T13:22:24;3.93;;;3.33;;
8040;SDS011;4063;48.140;10.250;2023-02-01T13:24:52;7.83;;;4.07;;
8040;SDS011;4063;48.140;10.250;2023-02-01T13:27:20;7.07;;;4.13;;
8040;SDS011;4063;48.140;10.250;2023-02-01T13:30:00;5.27;;;2.83;;
8040;SDS011;4063;48.140;10.250;2023-02-01T13:35:13;5.57;;;3.87;;
8040;SDS011;4063;48.140;10.250;2023-02-01T13:43:16;6.57;;;4.17;;
8040;SDS011;4063;48.140;10.250;2023-02-01T13:45:48;5.53;;;3.20;;
8040;SDS011;4063;48.140;10.250;2023-02-01T13:48:24;3.73;;;3.20;;
8040;SDS011;4063;48.140;10.250;2023-02-01T13:50:53;5.17;;;3.60;;
8040;SDS011;4063;48.140;10.250;2023-02-01T13:53:25;5.07;;;3.57;;
8040;SDS011;4063;48.140;10.250;2023-02-01T13:58:37;8.90;;;4.83;;
8040;SDS011;4063;48.140;10.250;2023-02-01T14:11:34;7.87;;;3.77;;
8040;SDS011;4063;48.140;10.250;2023-02-01T14:21:52;5.90;;;3.67;;
8040;SDS011;4063;48.140;10.250;2023-02-01T14:24:24;6.17;;;3.57;;
8040;SDS011;4063;48.140;10.250;2023-02-01T14:26:51;4.30;;;3.17;;
8040;SDS011;4063;48.140;10.250;2023-02-01T14:29:24;7.10;;;4.47;;
8040;SDS011;4063;48.140;10.250;2023-02-01T14:37:01;6.77;;;4.90;;
8040;SDS011;4063;48.140;10.250;2023-02-01T14:39:30;8.07;;;4.30;;
8040;SDS011;4063;48.140;10.250;2023-02-01T14:41:58;11.33;;;5.40;;
8040;SDS011;4063;48.140;10.250;2023-02-01T14:44:26;11.10;;;4.23;;
8040;SDS011;4063;48.140;10.250;2023-02-01T14:47:02;6.20;;;3.43;;
8040;SDS011;4063;48.140;10.250;2023-02-01T14:49:30;7.33;;;3.53;;
8040;SDS011;4063;48.140;10.250;2023-02-01T14:51:57;9.57;;;3.60;;
8040;SDS011;4063;48.140;10.250;2023-02-01T14:54:24;4.03;;;2.87;;
8040;SDS011;4063;48.140;10.250;2023-02-01T14:56:51;8.73;;;2.90;;
8040;SDS011;4063;48.140;10.250;2023-02-01T14:59:23;9.97;;;5.37;;
8040;SDS011;4063;48.140;10.250;2023-02-01T15:01:50;6.20;;;2.83;;
8040;SDS011;4063;48.140;10.250;2023-02-01T15:04:19;4.53;;;2.83;;
8040;SDS011;4063;48.140;10.250;2023-02-01T15:06:55;7.87;;;3.40;;
8040;SDS011;4063;48.140;10.250;2023-02-01T15:14:35;4.70;;;2.80;;
8040;SDS011;4063;48.140;10.250;2023-02-01T15:17:15;8.30;;;4.33;;
8040;SDS011;4063;48.140;10.250;2023-02-01T15:19:52;6.80;;;3.37;;
8040;SDS011;4063;48.140;10.250;2023-02-01T15:22:23;8.00;;;3.73;;
8040;SDS011;4063;48.140;10.250;2023-02-01T15:24:52;8.70;;;3.67;;
8040;SDS011;4063;48.140;10.250;2023-02-01T15:27:21;6.33;;;3.60;;
8040;SDS011;4063;48.140;10.250;2023-02-01T15:29:47;11.57;;;7.10;;
8040;SDS011;4063;48.140;10.250;2023-02-01T15:34:58;9.80;;;4.20;;
8040;SDS011;4063;48.140;10.250;2023-02-01T15:37:25;10.60;;;4.07;;
8040;SDS011;4063;48.140;10.250;2023-02-01T15:42:56;6.63;;;4.00;;
8040;SDS011;4063;48.140;10.250;2023-02-01T15:45:27;8.53;;;4.13;;
8040;SDS011;4063;48.140;10.250;2023-02-01T15:47:54;9.50;;;5.30;;
8040;SDS011;4063;48.140;10.250;2023-02-01T15:50:21;7.47;;;4.53;;
8040;SDS011;4063;48.140;10.250;2023-02-01T15:52:50;5.90;;;4.43;;
8040;SDS011;4063;48.140;10.250;2023-02-01T15:57:58;9.50;;;4.90;;
8040;SDS011;4063;48.140;10.250;2023-02-01T16:00:25;11.50;;;4.73;;
8040;SDS011;4063;48.140;10.250;2023-02-01T16:08:01;7.90;;;3.53;;
8040;SDS011;4063;48.140;10.250;2023-02-01T16:10:28;9.53;;;3.80;;
8040;SDS011;4063;48.140;10.250;2023-02-01T16:12:54;6.07;;;3.67;;
8040;SDS011;4063;48.140;10.250;2023-02-01T16:15:25;10.47;;;3.80;;
8040;SDS011;4063;48.140;10.250;2023-02-01T16:17:51;10.80;;;3.53;;
8040;SDS011;4063;48.140;10.250;2023-02-01T16:20:17;8.90;;;4.60;;
8040;SDS011;4063;48.140;10.250;2023-02-01T16:22:43;8.37;;;3.60;;
8040;SDS011;4063;48.140;10.250;2023-02-01T16:25:09;8.00;;;3.47;;
8040;SDS011;4063;48.140;10.250;2023-02-01T16:27:35;10.47;;;3.70;;
8040;SDS011;4063;48.140;10.250;2023-02-01T16:30:01;10.37;;;3.70;;
8040;SDS011;4063;48.140;10.250;2023-02-01T16:32:27;12.83;;;3.80;;
8040;SDS011;4063;48.140;10.250;2023-02-01T16:34:53;9.57;;;3.47;;
8040;SDS011;4063;48.140;10.250;2023-02-01T16:37:20;8.30;;;3.63;;
8040;SDS011;4063;48.140;10.250;2023-02-01T16:39:47;13.97;;;3.77;;
8040;SDS011;4063;48.140;10.250;2023-02-01T16:42:13;11.30;;;3.93;;
8040;SDS011;4063;48.140;10.250;2023-02-01T16:44:42;9.20;;;3.87;;
8040;SDS011;4063;48.140;10.250;2023-02-01T16:47:14;8.03;;;3.43;;
8040;SDS011;4063;48.140;10.250;2023-02-01T16:49:41;10.40;;;3.60;;
8040;SDS011;4063;48.140;10.250;2023-02-01T16:52:11;10.40;;;4.13;;
8040;SDS011;4063;48.140;10.250;2023-02-01T16:54:39;12.20;;;3.60;;
8040;SDS011;4063;48.140;10.250;2023-02-01T16:57:04;9.40;;;3.50;;
8040;SDS011;4063;48.140;10.250;2023-02-01T16:59:30;9.13;;;3.80;;
8040;SDS011;4063;48.140;10.250;2023-02-01T17:01:56;12.43;;;3.87;;
8040;SDS011;4063;48.140;10.250;2023-02-01T17:04:22;9.80;;;3.70;;
8040;SDS011;4063;48.140;10.250;2023-02-01T17:06:48;6.87;;;4.03;;
8040;SDS011;4063;48.140;10.250;2023-02-01T17:09:14;6.83;;;2.73;;
8040;SDS011;4063;48.140;10.250;2023-02-01T17:11:40;7.60;;;3.47;;
8040;SDS011;4063;48.140;10.250;2023-02-01T17:14:13;13.50;;;3.77;;
8040;SDS011;4063;48.140;10.250;2023-02-01T17:16:40;13.37;;;3.00;;
8040;SDS011;4063;48.140;10.250;2023-02-01T17:19:07;7.43;;;2.70;;
8040;SDS011;4063;48.140;10.250;2023-02-01T17:21:41;6.90;;;2.70;;
8040;SDS011;4063;48.140;10.250;2023-02-01T17:24:14;8.63;;;3.00;;
8040;SDS011;4063;48.140;10.250;2023-02-01T17:26:41;6.90;;;2.97;;
8040;SDS011;4063;48.140;10.250;2023-02-01T17:29:07;8.53;;;3.10;;
8040;SDS011;4063;48.140;10.250;2023-02-01T17:31:35;7.63;;;3.17;;
8040;SDS011;4063;48.140;10.250;2023-02-01T17:34:02;8.17;;;3.20;;
8040;SDS011;4063;48.140;10.250;2023-02-01T17:36:28;7.20;;;2.87;;